Terminal Aerodrome Forecast
Issued by NWS Jackson, KY

Home | Current Version | Previous Version | Text Only | Print | Product List | Glossary On
Versions: 1 2 3 4 5 6 7 8 9 10 11 12 13 14 15 16 17 18
000
FTUS43 KJKL 142333
TAFLOZ
TAF
KLOZ 142333Z 1500/1524 VRB03KT P6SM FEW250
     FM151600 19008KT P6SM SCT200
     FM151800 20008G17KT P6SM VCSH BKN080
     FM152100 21007KT P6SM -SHRA OVC060=

USA.gov is the U.S. government's official web portal to all federal, state and local government web resources and services.